createdAt,value
2019-06-15T00:00:41.759Z,952.94
2019-06-15T00:01:41.741Z,952.93
2019-06-15T00:02:41.727Z,953.00
2019-06-15T00:03:41.712Z,952.92
2019-06-15T00:04:41.690Z,953.02
2019-06-15T00:05:41.709Z,952.91
2019-06-15T00:06:41.655Z,952.96
2019-06-15T00:07:41.642Z,952.97
2019-06-15T00:08:41.661Z,952.91
2019-06-15T00:09:41.604Z,952.95
2019-06-15T00:10:41.588Z,952.89
2019-06-15T00:11:41.571Z,952.91
2019-06-15T00:12:42.308Z,952.93
2019-06-15T00:13:41.537Z,952.88
2019-06-15T00:14:41.523Z,952.86
2019-06-15T00:15:41.503Z,952.86
2019-06-15T00:16:41.485Z,952.81
2019-06-15T00:17:41.470Z,952.82
2019-06-15T00:18:41.499Z,952.80
2019-06-15T00:19:41.436Z,952.75
2019-06-15T00:20:41.419Z,952.77
2019-06-15T00:21:41.401Z,952.73
2019-06-15T00:22:41.387Z,952.78
2019-06-15T00:23:42.162Z,952.74
2019-06-15T00:24:41.351Z,952.73
2019-06-15T00:25:41.339Z,952.72
2019-06-15T00:26:41.317Z,952.72
2019-06-15T00:27:41.302Z,952.67
2019-06-15T00:28:41.285Z,952.70
2019-06-15T00:29:41.266Z,952.64
2019-06-15T00:30:41.251Z,952.64
2019-06-15T00:31:41.234Z,952.62
2019-06-15T00:32:41.217Z,952.58
2019-06-15T00:33:41.199Z,952.56
2019-06-15T00:34:41.184Z,952.57
2019-06-15T00:35:41.166Z,952.56
2019-06-15T00:36:41.151Z,952.56
2019-06-15T00:37:41.131Z,952.54
2019-06-15T00:38:41.116Z,952.54
2019-06-15T00:39:41.102Z,952.57
2019-06-15T00:40:41.081Z,952.60
2019-06-15T00:41:41.063Z,952.60
2019-06-15T00:42:41.046Z,952.64
2019-06-15T00:43:41.030Z,952.67
2019-06-15T00:44:41.013Z,952.68
2019-06-15T00:45:40.995Z,952.68
2019-06-15T00:46:40.978Z,952.72
2019-06-15T00:47:40.962Z,952.74
2019-06-15T00:48:40.953Z,952.82
2019-06-15T00:49:40.927Z,952.78
2019-06-15T00:50:40.910Z,952.84
2019-06-15T00:51:40.893Z,952.87
2019-06-15T00:52:40.876Z,952.92
2019-06-15T00:53:40.858Z,952.97
2019-06-15T00:54:49.939Z,953.02
2019-06-15T00:55:40.823Z,953.09
2019-06-15T00:56:40.807Z,953.11
2019-06-15T00:57:40.790Z,953.16
2019-06-15T00:58:40.801Z,953.25
2019-06-15T00:59:40.755Z,953.31
2019-06-15T01:00:40.737Z,953.33
2019-06-15T01:01:40.720Z,953.37
2019-06-15T01:02:40.704Z,953.36
2019-06-15T01:03:40.685Z,953.41
2019-06-15T01:04:40.712Z,953.46
2019-06-15T01:05:40.649Z,953.49
2019-06-15T01:06:40.632Z,953.59
2019-06-15T01:07:40.615Z,953.60
2019-06-15T01:08:40.597Z,953.67
2019-06-15T01:09:40.579Z,953.77
2019-06-15T01:10:40.563Z,953.87
2019-06-15T01:11:40.545Z,953.97
2019-06-15T01:12:40.527Z,954.04
2019-06-15T01:13:40.507Z,954.07
2019-06-15T01:14:40.492Z,954.07
2019-06-15T01:15:40.473Z,954.11
2019-06-15T01:16:40.455Z,954.09
2019-06-15T01:17:40.437Z,954.09
2019-06-15T01:18:40.419Z,954.09
2019-06-15T01:19:40.410Z,954.10
2019-06-15T01:20:40.384Z,954.12
2019-06-15T01:21:40.372Z,954.15
2019-06-15T01:22:40.347Z,954.12
2019-06-15T01:23:40.329Z,954.10
2019-06-15T01:24:40.310Z,954.09
2019-06-15T01:25:40.291Z,954.08
2019-06-15T01:26:40.274Z,954.06
2019-06-15T01:27:40.257Z,954.06
2019-06-15T01:28:40.238Z,954.03
2019-06-15T01:29:40.220Z,954.00
2019-06-15T01:30:40.202Z,953.97
2019-06-15T01:31:40.184Z,954.01
2019-06-15T01:32:40.165Z,953.99
2019-06-15T01:33:40.147Z,953.98
2019-06-15T01:34:40.130Z,953.96
2019-06-15T01:35:40.112Z,953.97
2019-06-15T01:36:40.093Z,954.00
2019-06-15T01:37:40.074Z,954.04
2019-06-15T01:38:40.058Z,954.07
2019-06-15T01:39:40.038Z,954.13
2019-06-15T01:40:40.021Z,954.21
2019-06-15T01:41:40.034Z,954.24
2019-06-15T01:42:39.987Z,954.32
2019-06-15T01:43:39.969Z,954.38
2019-06-15T01:44:39.947Z,954.44
2019-06-15T01:45:39.929Z,954.53
2019-06-15T01:46:39.912Z,954.58
2019-06-15T01:47:39.893Z,954.62
2019-06-15T01:48:39.877Z,954.67
2019-06-15T01:49:39.863Z,954.68
2019-06-15T01:50:39.839Z,954.77
2019-06-15T01:51:39.821Z,954.78
2019-06-15T01:52:39.803Z,954.86
2019-06-15T01:53:39.785Z,954.95
2019-06-15T01:54:39.766Z,954.99
2019-06-15T01:55:39.749Z,955.07
2019-06-15T01:56:40.482Z,955.18
2019-06-15T01:57:39.711Z,955.30
2019-06-15T01:58:39.694Z,955.42
2019-06-15T01:59:39.676Z,955.50
2019-06-15T02:00:39.692Z,955.63
2019-06-15T02:01:39.640Z,955.65
2019-06-15T02:02:39.630Z,955.63
2019-06-15T02:03:39.603Z,955.67
2019-06-15T02:04:39.585Z,955.70
2019-06-15T02:05:39.568Z,955.82
2019-06-15T02:06:39.548Z,955.86
2019-06-15T02:07:39.531Z,956.10
2019-06-15T02:08:39.512Z,956.05
2019-06-15T02:09:39.497Z,956.17
2019-06-15T02:10:39.475Z,956.11
2019-06-15T02:11:39.457Z,956.20
2019-06-15T02:12:39.441Z,956.27
2019-06-15T02:13:39.422Z,956.34
2019-06-15T02:14:39.408Z,956.41
2019-06-15T02:15:39.385Z,956.40
2019-06-15T02:16:39.375Z,956.42
2019-06-15T02:17:39.346Z,956.47
2019-06-15T02:18:39.328Z,956.57
2019-06-15T02:19:39.318Z,956.58
2019-06-15T02:20:39.291Z,956.56
2019-06-15T02:21:39.278Z,956.64
2019-06-15T02:22:39.253Z,956.75
2019-06-15T02:23:39.234Z,956.81
2019-06-15T02:24:39.217Z,956.85
2019-06-15T02:25:39.196Z,956.84
2019-06-15T02:26:39.179Z,956.85
2019-06-15T02:27:39.161Z,956.90
2019-06-15T02:28:39.142Z,956.87
2019-06-15T02:29:39.182Z,956.90
2019-06-15T02:30:39.103Z,956.96
2019-06-15T02:31:39.087Z,956.98
2019-06-15T02:32:39.067Z,957.02
2019-06-15T02:33:39.047Z,957.06
2019-06-15T02:34:39.032Z,957.05
2019-06-15T02:35:39.009Z,957.17
2019-06-15T02:36:38.998Z,957.17
2019-06-15T02:37:39.019Z,957.23
2019-06-15T02:38:38.953Z,957.34
2019-06-15T02:39:38.931Z,957.28
2019-06-15T02:40:38.911Z,957.35
2019-06-15T02:41:38.892Z,957.32
2019-06-15T02:42:38.885Z,957.42
2019-06-15T02:43:38.852Z,957.48
2019-06-15T02:44:38.836Z,957.62
2019-06-15T02:45:38.812Z,957.62
2019-06-15T02:46:38.796Z,957.62
2019-06-15T02:47:38.774Z,957.62
2019-06-15T02:48:38.766Z,957.75
2019-06-15T02:49:38.733Z,957.75
2019-06-15T02:50:38.719Z,957.78
2019-06-15T02:51:38.695Z,957.83
2019-06-15T02:52:38.674Z,957.89
2019-06-15T02:53:38.655Z,957.87
2019-06-15T02:54:38.636Z,957.89
2019-06-15T02:55:50.165Z,957.97
2019-06-15T02:56:38.597Z,957.89
2019-06-15T02:57:38.576Z,957.88
2019-06-15T02:58:38.570Z,957.92
2019-06-15T02:59:38.543Z,957.96
2019-06-15T03:00:38.517Z,957.99
2019-06-15T03:01:38.497Z,958.05
2019-06-15T03:02:38.484Z,957.93
2019-06-15T03:03:38.460Z,958.01
2019-06-15T03:04:38.438Z,957.90
2019-06-15T03:05:39.921Z,957.85
2019-06-15T03:06:38.399Z,957.81
2019-06-15T03:07:38.380Z,957.86
2019-06-15T03:08:38.361Z,957.81
2019-06-15T03:09:38.339Z,957.85
2019-06-15T03:10:38.320Z,957.90
2019-06-15T03:11:39.051Z,957.89
2019-06-15T03:12:38.281Z,957.84
2019-06-15T03:13:38.260Z,957.88
2019-06-15T03:14:38.244Z,957.90
2019-06-15T03:15:38.222Z,957.90
2019-06-15T03:16:38.202Z,957.88
2019-06-15T03:17:38.206Z,957.88
2019-06-15T03:18:38.163Z,957.91
2019-06-15T03:19:38.142Z,957.96
2019-06-15T03:20:38.126Z,957.95
2019-06-15T03:21:38.149Z,957.90
2019-06-15T03:22:38.085Z,957.90
2019-06-15T03:23:38.069Z,957.93
2019-06-15T03:24:38.049Z,957.93
2019-06-15T03:25:38.027Z,957.91
2019-06-15T03:26:38.005Z,957.89
2019-06-15T03:27:37.985Z,957.95
2019-06-15T03:28:37.974Z,958.01
2019-06-15T03:29:37.945Z,958.05
2019-06-15T03:30:37.931Z,958.13
2019-06-15T03:31:37.908Z,958.13
2019-06-15T03:32:37.892Z,958.16
2019-06-15T03:33:37.871Z,958.19
2019-06-15T03:34:37.848Z,958.20
2019-06-15T03:35:37.828Z,958.24
2019-06-15T03:36:37.808Z,958.19
2019-06-15T03:37:37.790Z,958.14
2019-06-15T03:38:37.769Z,958.11
2019-06-15T03:39:37.750Z,958.15
2019-06-15T03:40:37.730Z,958.14
2019-06-15T03:41:37.709Z,958.16
2019-06-15T03:42:37.690Z,958.15
2019-06-15T03:43:37.721Z,958.12
2019-06-15T03:44:37.725Z,958.13
2019-06-15T03:45:37.631Z,958.11
2019-06-15T03:46:37.611Z,958.07
2019-06-15T03:47:37.594Z,958.11
2019-06-15T03:48:37.571Z,958.09
2019-06-15T03:49:37.551Z,958.16
2019-06-15T03:50:37.532Z,958.16
2019-06-15T03:51:37.513Z,958.15
2019-06-15T03:52:37.494Z,958.12
2019-06-15T03:53:37.471Z,958.13
2019-06-15T03:54:37.453Z,958.15
2019-06-15T03:55:40.407Z,958.25
2019-06-15T03:56:37.414Z,958.29
2019-06-15T03:57:37.394Z,958.33
2019-06-15T03:58:37.379Z,958.36
2019-06-15T03:59:37.360Z,958.39
2019-06-15T04:00:37.335Z,958.42
2019-06-15T04:01:37.372Z,958.40
2019-06-15T04:02:37.299Z,958.44
2019-06-15T04:03:37.280Z,958.46
2019-06-15T04:04:37.256Z,958.51
2019-06-15T04:05:37.238Z,958.47
2019-06-15T04:06:37.216Z,958.42
2019-06-15T04:07:37.195Z,958.43
2019-06-15T04:08:37.177Z,958.38
2019-06-15T04:09:37.160Z,958.35
2019-06-15T04:10:37.142Z,958.36
2019-06-15T04:11:37.116Z,958.35
2019-06-15T04:12:37.097Z,958.36
2019-06-15T04:13:37.076Z,958.31
2019-06-15T04:14:37.057Z,958.31
2019-06-15T04:15:37.045Z,958.31
2019-06-15T04:16:37.023Z,958.30
2019-06-15T04:17:36.998Z,958.27
2019-06-15T04:18:36.980Z,958.26
2019-06-15T04:19:36.987Z,958.26
2019-06-15T04:20:36.940Z,958.21
2019-06-15T04:21:36.919Z,958.20
2019-06-15T04:22:36.904Z,958.24
2019-06-15T04:23:36.881Z,958.27
2019-06-15T04:24:36.861Z,958.33
2019-06-15T04:25:36.840Z,958.35
2019-06-15T04:26:36.822Z,958.41
2019-06-15T04:27:36.803Z,958.40
2019-06-15T04:28:36.781Z,958.48
2019-06-15T04:29:36.762Z,958.50
2019-06-15T04:30:36.753Z,958.54
2019-06-15T04:31:39.845Z,958.54
2019-06-15T04:32:36.709Z,958.54
2019-06-15T04:33:36.684Z,958.57
2019-06-15T04:34:36.666Z,958.61
2019-06-15T04:35:36.646Z,958.62
2019-06-15T04:36:36.627Z,958.63
2019-06-15T04:37:36.608Z,958.64
2019-06-15T04:38:36.588Z,958.68
2019-06-15T04:39:36.567Z,958.70
2019-06-15T04:40:36.550Z,958.73
2019-06-15T04:41:36.529Z,958.69
2019-06-15T04:42:36.518Z,958.67
2019-06-15T04:43:36.491Z,958.64
2019-06-15T04:44:36.472Z,958.61
2019-06-15T04:45:36.452Z,958.60
2019-06-15T04:46:38.686Z,958.61
2019-06-15T04:47:36.414Z,958.56
2019-06-15T04:48:36.395Z,958.57
2019-06-15T04:49:36.378Z,958.58
2019-06-15T04:50:36.357Z,958.55
2019-06-15T04:51:36.339Z,958.54
2019-06-15T04:52:36.319Z,958.51
2019-06-15T04:53:36.299Z,958.53
2019-06-15T04:54:36.285Z,958.48
2019-06-15T04:55:36.266Z,958.47
2019-06-15T04:56:50.026Z,958.51
2019-06-15T04:57:36.224Z,958.56
2019-06-15T04:58:36.204Z,958.53
2019-06-15T04:59:36.185Z,958.50
2019-06-15T05:00:36.166Z,958.59
2019-06-15T05:01:36.147Z,958.60
2019-06-15T05:02:36.127Z,958.63
2019-06-15T05:03:36.108Z,958.70
2019-06-15T05:04:36.090Z,958.70
2019-06-15T05:05:36.074Z,958.70
2019-06-15T05:06:36.052Z,958.66
2019-06-15T05:07:36.032Z,958.65
2019-06-15T05:08:36.014Z,958.60
2019-06-15T05:09:35.994Z,958.60
2019-06-15T05:10:35.974Z,958.62
2019-06-15T05:11:35.990Z,958.64
2019-06-15T05:12:35.940Z,958.64
2019-06-15T05:13:38.923Z,958.63
2019-06-15T05:14:35.899Z,958.59
2019-06-15T05:15:35.880Z,958.61
2019-06-15T05:16:35.861Z,958.62
2019-06-15T05:17:35.854Z,958.68
2019-06-15T05:18:35.823Z,958.69
2019-06-15T05:19:35.803Z,958.71
2019-06-15T05:20:35.786Z,958.75
2019-06-15T05:21:35.768Z,958.75
2019-06-15T05:22:35.751Z,958.79
2019-06-15T05:23:35.729Z,958.82
2019-06-15T05:24:35.710Z,958.87
2019-06-15T05:25:35.694Z,958.81
2019-06-15T05:26:35.672Z,958.80
2019-06-15T05:27:35.654Z,958.82
2019-06-15T05:28:35.634Z,958.85
2019-06-15T05:29:35.618Z,958.88
2019-06-15T05:30:35.596Z,958.86
2019-06-15T05:31:35.578Z,958.83
2019-06-15T05:32:35.563Z,958.79
2019-06-15T05:33:35.540Z,958.81
2019-06-15T05:34:35.521Z,958.86
2019-06-15T05:35:35.507Z,958.87
2019-06-15T05:36:35.486Z,958.87
2019-06-15T05:37:35.467Z,958.85
2019-06-15T05:38:35.447Z,958.92
2019-06-15T05:39:35.430Z,958.93
2019-06-15T05:40:35.412Z,958.94
2019-06-15T05:41:35.394Z,959.00
2019-06-15T05:42:35.375Z,959.00
2019-06-15T05:43:35.358Z,959.00
2019-06-15T05:44:35.340Z,959.07
2019-06-15T05:45:35.321Z,959.05
2019-06-15T05:46:35.302Z,959.09
2019-06-15T05:47:35.314Z,959.09
2019-06-15T05:48:35.267Z,959.07
2019-06-15T05:49:35.249Z,959.09
2019-06-15T05:50:35.233Z,959.17
2019-06-15T05:51:35.214Z,959.12
2019-06-15T05:52:35.197Z,959.12
2019-06-15T05:53:35.178Z,959.16
2019-06-15T05:54:35.161Z,959.13
2019-06-15T05:55:35.143Z,959.16
2019-06-15T05:56:35.125Z,959.19
2019-06-15T05:57:35.105Z,959.23
2019-06-15T05:58:35.088Z,959.21
2019-06-15T05:59:35.071Z,959.25
2019-06-15T06:00:35.054Z,959.26
2019-06-15T06:01:35.035Z,959.22
2019-06-15T06:02:35.017Z,959.24
2019-06-15T06:03:35.001Z,959.23
2019-06-15T06:04:34.987Z,959.24
2019-06-15T06:05:34.963Z,959.21
2019-06-15T06:06:34.970Z,959.24
2019-06-15T06:07:34.927Z,959.22
2019-06-15T06:08:34.910Z,959.22
2019-06-15T06:09:34.891Z,959.22
2019-06-15T06:10:34.874Z,959.22
2019-06-15T06:11:34.866Z,959.21
2019-06-15T06:12:34.837Z,959.16
2019-06-15T06:13:34.829Z,959.12
2019-06-15T06:14:34.802Z,959.16
2019-06-15T06:15:34.789Z,959.19
2019-06-15T06:16:34.768Z,959.23
2019-06-15T06:17:34.747Z,959.23
2019-06-15T06:18:34.734Z,959.20
2019-06-15T06:19:34.713Z,959.23
2019-06-15T06:20:34.696Z,959.25
2019-06-15T06:21:34.678Z,959.29
2019-06-15T06:22:34.687Z,959.34
2019-06-15T06:23:34.644Z,959.34
2019-06-15T06:24:34.632Z,959.35
2019-06-15T06:25:34.606Z,959.37
2019-06-15T06:26:34.600Z,959.39
2019-06-15T06:27:39.833Z,959.38
2019-06-15T06:28:34.559Z,959.39
2019-06-15T06:29:34.535Z,959.41
2019-06-15T06:30:34.520Z,959.41
2019-06-15T06:31:34.502Z,959.40
2019-06-15T06:32:34.483Z,959.44
2019-06-15T06:33:34.466Z,959.46
2019-06-15T06:34:34.447Z,959.40
2019-06-15T06:35:34.429Z,959.41
2019-06-15T06:36:34.413Z,959.44
2019-06-15T06:37:34.393Z,959.46
2019-06-15T06:38:34.377Z,959.48
2019-06-15T06:39:34.358Z,959.50
2019-06-15T06:40:34.341Z,959.55
2019-06-15T06:41:34.333Z,959.53
2019-06-15T06:42:34.305Z,959.52
2019-06-15T06:43:34.291Z,959.60
2019-06-15T06:44:34.278Z,959.62
2019-06-15T06:45:34.253Z,959.60
2019-06-15T06:46:34.245Z,959.59
2019-06-15T06:47:34.218Z,959.60
2019-06-15T06:48:34.202Z,959.61
2019-06-15T06:49:34.180Z,959.61
2019-06-15T06:50:34.164Z,959.58
2019-06-15T06:51:34.150Z,959.61
2019-06-15T06:52:34.127Z,959.61
2019-06-15T06:53:34.110Z,959.62
2019-06-15T06:54:34.092Z,959.65
2019-06-15T06:55:34.074Z,959.66
2019-06-15T06:56:34.061Z,959.64
2019-06-15T06:57:34.051Z,959.72
2019-06-15T06:58:34.021Z,959.79
2019-06-15T06:59:34.003Z,959.82
2019-06-15T07:00:33.986Z,959.86
2019-06-15T07:01:33.967Z,959.88
2019-06-15T07:02:33.949Z,959.91
2019-06-15T07:03:33.936Z,959.89
2019-06-15T07:04:33.943Z,959.94
2019-06-15T07:05:33.900Z,959.96
2019-06-15T07:06:33.876Z,959.97
2019-06-15T07:07:33.860Z,960.00
2019-06-15T07:08:33.843Z,959.97
2019-06-15T07:09:33.822Z,960.00
2019-06-15T07:10:33.804Z,959.98
2019-06-15T07:11:33.790Z,959.95
2019-06-15T07:12:33.819Z,959.99
2019-06-15T07:13:33.751Z,959.99
2019-06-15T07:14:33.733Z,959.98
2019-06-15T07:15:35.967Z,960.02
2019-06-15T07:16:33.747Z,960.02
2019-06-15T07:17:33.793Z,960.03
2019-06-15T07:18:33.660Z,959.99
2019-06-15T07:19:33.649Z,960.01
2019-06-15T07:20:33.625Z,959.99
2019-06-15T07:21:33.608Z,960.01
2019-06-15T07:22:33.590Z,959.97
2019-06-15T07:23:33.585Z,959.99
2019-06-15T07:24:33.553Z,960.00
2019-06-15T07:25:33.563Z,960.04
2019-06-15T07:26:33.541Z,960.01
2019-06-15T07:27:33.529Z,960.06
2019-06-15T07:28:33.492Z,960.05
2019-06-15T07:29:33.469Z,960.10
2019-06-15T07:30:33.464Z,960.08
2019-06-15T07:31:33.433Z,960.11
2019-06-15T07:32:33.632Z,960.09
2019-06-15T07:33:33.392Z,960.14
2019-06-15T07:34:33.374Z,960.14
2019-06-15T07:35:33.354Z,960.15
2019-06-15T07:36:33.337Z,960.18
2019-06-15T07:37:33.319Z,960.21
2019-06-15T07:38:33.301Z,960.23
2019-06-15T07:39:33.283Z,960.25
2019-06-15T07:40:33.266Z,960.28
2019-06-15T07:41:33.248Z,960.35
2019-06-15T07:42:33.233Z,960.33
2019-06-15T07:43:33.214Z,960.40
2019-06-15T07:44:33.197Z,960.35
2019-06-15T07:45:33.179Z,960.42
2019-06-15T07:46:33.158Z,960.48
2019-06-15T07:47:33.144Z,960.48
2019-06-15T07:48:33.226Z,960.44
2019-06-15T07:49:33.107Z,960.44
2019-06-15T07:50:33.091Z,960.50
2019-06-15T07:51:33.081Z,960.50
2019-06-15T07:52:33.065Z,960.45
2019-06-15T07:53:33.037Z,960.50
2019-06-15T07:54:36.050Z,960.50
2019-06-15T07:55:33.051Z,960.53
2019-06-15T07:56:32.987Z,960.54
2019-06-15T07:57:32.974Z,960.56
2019-06-15T07:58:32.952Z,960.62
2019-06-15T07:59:32.937Z,960.56
2019-06-15T08:00:32.919Z,960.62
2019-06-15T08:01:32.900Z,960.67
2019-06-15T08:02:32.883Z,960.72
2019-06-15T08:03:32.870Z,960.67
2019-06-15T08:04:32.851Z,960.74
2019-06-15T08:05:32.836Z,960.75
2019-06-15T08:06:32.868Z,960.77
2019-06-15T08:07:32.801Z,960.74
2019-06-15T08:08:32.786Z,960.76
2019-06-15T08:09:35.024Z,960.74
2019-06-15T08:10:32.751Z,960.73
2019-06-15T08:11:32.739Z,960.74
2019-06-15T08:12:32.717Z,960.74
2019-06-15T08:13:32.701Z,960.73
2019-06-15T08:14:32.687Z,960.78
2019-06-15T08:15:33.419Z,960.75
2019-06-15T08:16:32.653Z,960.81
2019-06-15T08:17:32.654Z,960.83
2019-06-15T08:18:32.619Z,960.78
2019-06-15T08:19:32.602Z,960.80
2019-06-15T08:20:32.586Z,960.82
2019-06-15T08:21:32.569Z,960.91
2019-06-15T08:22:32.552Z,960.89
2019-06-15T08:23:32.536Z,960.89
2019-06-15T08:24:32.520Z,960.85
2019-06-15T08:25:32.501Z,960.85
2019-06-15T08:26:32.486Z,960.84
2019-06-15T08:27:32.468Z,960.86
2019-06-15T08:28:40.272Z,960.85
2019-06-15T08:29:32.434Z,960.84
2019-06-15T08:30:32.417Z,960.86
2019-06-15T08:31:32.403Z,960.82
2019-06-15T08:32:32.384Z,960.84
2019-06-15T08:33:32.368Z,960.86
2019-06-15T08:34:32.394Z,960.90
2019-06-15T08:35:32.334Z,960.90
2019-06-15T08:36:32.319Z,960.88
2019-06-15T08:37:32.298Z,960.92
2019-06-15T08:38:32.284Z,960.94
2019-06-15T08:39:32.267Z,960.97
2019-06-15T08:40:32.250Z,960.98
2019-06-15T08:41:32.231Z,961.00
2019-06-15T08:42:32.215Z,961.06
2019-06-15T08:43:32.203Z,961.02
2019-06-15T08:44:32.182Z,961.03
2019-06-15T08:45:32.164Z,960.96
2019-06-15T08:46:32.147Z,961.00
2019-06-15T08:47:32.131Z,961.03
2019-06-15T08:48:32.114Z,961.05
2019-06-15T08:49:32.108Z,961.10
2019-06-15T08:50:32.081Z,961.12
2019-06-15T08:51:32.063Z,961.11
2019-06-15T08:52:32.047Z,961.14
2019-06-15T08:53:32.029Z,961.10
2019-06-15T08:54:32.013Z,961.04
2019-06-15T08:55:32.003Z,961.03
2019-06-15T08:56:31.979Z,961.09
2019-06-15T08:57:31.964Z,961.03
2019-06-15T08:58:31.946Z,961.05
2019-06-15T08:59:31.930Z,961.09
2019-06-15T09:00:31.924Z,961.06
2019-06-15T09:01:31.895Z,961.06
2019-06-15T09:02:31.888Z,961.07
2019-06-15T09:03:31.865Z,961.09
2019-06-15T09:04:31.850Z,961.11
2019-06-15T09:05:31.830Z,961.11
2019-06-15T09:06:31.813Z,961.08
2019-06-15T09:07:31.797Z,961.07
2019-06-15T09:08:31.784Z,961.06
2019-06-15T09:09:31.772Z,961.05
2019-06-15T09:10:31.749Z,961.07
2019-06-15T09:11:31.734Z,961.09
2019-06-15T09:12:31.719Z,961.05
2019-06-15T09:13:32.459Z,961.08
2019-06-15T09:14:31.685Z,961.00
2019-06-15T09:15:31.675Z,961.03
2019-06-15T09:16:31.657Z,960.99
2019-06-15T09:17:31.637Z,961.00
2019-06-15T09:18:31.630Z,960.96
2019-06-15T09:19:31.607Z,960.93
2019-06-15T09:20:31.591Z,960.92
2019-06-15T09:21:31.576Z,960.95
2019-06-15T09:22:31.560Z,960.94
2019-06-15T09:23:31.544Z,960.93
2019-06-15T09:24:31.529Z,960.93
2019-06-15T09:25:31.514Z,960.95
2019-06-15T09:26:31.497Z,960.93
2019-06-15T09:27:31.482Z,960.94
2019-06-15T09:28:31.466Z,960.95
2019-06-15T09:29:31.448Z,960.99
2019-06-15T09:30:31.434Z,960.98
2019-06-15T09:31:31.420Z,960.96
2019-06-15T09:32:31.404Z,961.00
2019-06-15T09:33:31.388Z,960.95
2019-06-15T09:34:31.375Z,961.05
2019-06-15T09:35:31.358Z,961.01
2019-06-15T09:36:31.342Z,960.98
2019-06-15T09:37:31.327Z,960.93
2019-06-15T09:38:31.310Z,960.92
2019-06-15T09:39:31.295Z,960.97
2019-06-15T09:40:31.280Z,961.02
2019-06-15T09:41:31.264Z,961.02
2019-06-15T09:42:31.345Z,961.02
2019-06-15T09:43:31.235Z,960.96
2019-06-15T09:44:31.221Z,960.96
2019-06-15T09:45:33.064Z,960.92
2019-06-15T09:46:31.187Z,960.97
2019-06-15T09:47:31.174Z,961.01
2019-06-15T09:48:31.159Z,961.03
2019-06-15T09:49:31.140Z,961.04
2019-06-15T09:50:31.129Z,961.06
2019-06-15T09:51:31.110Z,961.09
2019-06-15T09:52:31.095Z,961.03
2019-06-15T09:53:31.079Z,961.06
2019-06-15T09:54:31.063Z,961.02
2019-06-15T09:55:31.048Z,961.02
2019-06-15T09:56:31.031Z,960.97
2019-06-15T09:57:31.016Z,960.95
2019-06-15T09:58:31.001Z,960.95
2019-06-15T09:59:30.985Z,961.01
2019-06-15T10:00:30.970Z,960.94
2019-06-15T10:01:30.954Z,960.91
2019-06-15T10:02:30.940Z,960.85
2019-06-15T10:03:30.923Z,960.87
2019-06-15T10:04:30.907Z,960.87
2019-06-15T10:05:30.891Z,960.88
2019-06-15T10:06:30.876Z,960.87
2019-06-15T10:07:30.865Z,960.80
2019-06-15T10:08:30.846Z,960.87
2019-06-15T10:09:30.845Z,960.82
2019-06-15T10:10:30.814Z,960.87
2019-06-15T10:11:30.800Z,960.92
2019-06-15T10:12:30.782Z,960.92
2019-06-15T10:13:31.531Z,960.93
2019-06-15T10:14:30.750Z,960.98
2019-06-15T10:15:30.735Z,960.93
2019-06-15T10:16:30.719Z,960.96
2019-06-15T10:17:30.703Z,960.91
2019-06-15T10:18:30.687Z,960.87
2019-06-15T10:19:30.671Z,960.85
2019-06-15T10:20:30.662Z,960.82
2019-06-15T10:21:30.639Z,960.84
2019-06-15T10:22:30.625Z,960.90
2019-06-15T10:23:30.669Z,960.90
2019-06-15T10:24:30.593Z,960.96
2019-06-15T10:25:30.576Z,960.97
2019-06-15T10:26:30.562Z,961.04
2019-06-15T10:27:30.545Z,960.99
2019-06-15T10:28:30.532Z,960.98
2019-06-15T10:29:41.585Z,960.95
2019-06-15T10:30:30.498Z,960.93
2019-06-15T10:31:30.483Z,960.89
2019-06-15T10:32:30.466Z,960.87
2019-06-15T10:33:30.449Z,960.86
2019-06-15T10:34:30.453Z,960.86
2019-06-15T10:35:30.420Z,960.90
2019-06-15T10:36:30.406Z,960.89
2019-06-15T10:37:30.400Z,960.82
2019-06-15T10:38:30.374Z,960.82
2019-06-15T10:39:30.358Z,960.91
2019-06-15T10:40:30.342Z,960.92
2019-06-15T10:41:30.329Z,960.94
2019-06-15T10:42:30.310Z,960.92
2019-06-15T10:43:30.294Z,961.01
2019-06-15T10:44:30.278Z,961.00
2019-06-15T10:45:30.262Z,960.98
2019-06-15T10:46:30.268Z,960.98
2019-06-15T10:47:30.232Z,960.98
2019-06-15T10:48:30.216Z,960.99
2019-06-15T10:49:30.205Z,960.95
2019-06-15T10:50:30.185Z,960.91
2019-06-15T10:51:30.176Z,960.96
2019-06-15T10:52:30.155Z,960.92
2019-06-15T10:53:30.139Z,960.92
2019-06-15T10:54:30.123Z,960.89
2019-06-15T10:55:30.108Z,960.89
2019-06-15T10:56:30.095Z,960.89
2019-06-15T10:57:30.079Z,960.82
2019-06-15T10:58:30.064Z,960.79
2019-06-15T10:59:30.050Z,960.81
2019-06-15T11:00:30.033Z,960.84
2019-06-15T11:01:30.032Z,960.84
2019-06-15T11:02:30.008Z,960.85
2019-06-15T11:03:29.987Z,960.83
2019-06-15T11:04:29.972Z,960.78
2019-06-15T11:05:29.958Z,960.76
2019-06-15T11:06:29.940Z,960.77
2019-06-15T11:07:29.927Z,960.73
2019-06-15T11:08:29.912Z,960.77
2019-06-15T11:09:29.897Z,960.80
2019-06-15T11:10:29.880Z,960.77
2019-06-15T11:11:29.865Z,960.75
2019-06-15T11:12:42.720Z,960.70
2019-06-15T11:13:29.834Z,960.66
2019-06-15T11:14:29.827Z,960.71
2019-06-15T11:15:29.808Z,960.70
2019-06-15T11:16:31.289Z,960.68
2019-06-15T11:17:29.771Z,960.69
2019-06-15T11:18:29.756Z,960.67
2019-06-15T11:19:29.743Z,960.69
2019-06-15T11:20:29.728Z,960.75
2019-06-15T11:21:29.709Z,960.74
2019-06-15T11:22:29.698Z,960.76
2019-06-15T11:23:29.690Z,960.75
2019-06-15T11:24:29.662Z,960.82
2019-06-15T11:25:29.647Z,960.75
2019-06-15T11:26:29.632Z,960.76
2019-06-15T11:27:29.616Z,960.73
2019-06-15T11:28:29.606Z,960.77
2019-06-15T11:29:29.584Z,960.76
2019-06-15T11:30:29.568Z,960.75
2019-06-15T11:31:29.553Z,960.81
2019-06-15T11:32:29.536Z,960.79
2019-06-15T11:33:29.524Z,960.86
2019-06-15T11:34:29.506Z,960.84
2019-06-15T11:35:29.489Z,960.75
2019-06-15T11:36:29.472Z,960.85
2019-06-15T11:37:29.455Z,960.85
2019-06-15T11:38:30.191Z,960.82
2019-06-15T11:39:29.425Z,960.87
2019-06-15T11:40:29.408Z,960.89
2019-06-15T11:41:29.397Z,960.90
2019-06-15T11:42:29.375Z,960.89
2019-06-15T11:43:29.395Z,960.91
2019-06-15T11:44:29.345Z,960.96
2019-06-15T11:45:29.329Z,960.93
2019-06-15T11:46:29.311Z,960.85
2019-06-15T11:47:29.295Z,960.83
2019-06-15T11:48:29.280Z,960.88
2019-06-15T11:49:29.264Z,960.82
2019-06-15T11:50:29.247Z,960.89
2019-06-15T11:51:29.231Z,960.80
2019-06-15T11:52:29.215Z,960.82
2019-06-15T11:53:29.198Z,960.86
2019-06-15T11:54:29.184Z,960.79
2019-06-15T11:55:39.004Z,960.78
2019-06-15T11:56:29.162Z,960.75
2019-06-15T11:57:29.159Z,960.77
2019-06-15T11:58:29.117Z,960.79
2019-06-15T11:59:29.102Z,960.82
2019-06-15T12:00:31.461Z,960.74
2019-06-15T12:01:29.070Z,960.81
2019-06-15T12:02:29.055Z,960.75
2019-06-15T12:03:29.039Z,960.78
2019-06-15T12:04:29.023Z,960.76
2019-06-15T12:05:29.017Z,960.74
2019-06-15T12:06:28.990Z,960.76
2019-06-15T12:07:28.976Z,960.79
2019-06-15T12:08:28.960Z,960.73
2019-06-15T12:09:28.945Z,960.72
2019-06-15T12:10:28.938Z,960.69
2019-06-15T12:11:28.915Z,960.68
2019-06-15T12:12:28.901Z,960.67
2019-06-15T12:13:28.883Z,960.65
2019-06-15T12:14:28.866Z,960.59
2019-06-15T12:15:28.854Z,960.59
2019-06-15T12:16:28.845Z,960.68
2019-06-15T12:17:28.820Z,960.70
2019-06-15T12:18:28.804Z,960.71
2019-06-15T12:19:28.789Z,960.73
2019-06-15T12:20:28.774Z,960.73
2019-06-15T12:21:28.801Z,960.68
2019-06-15T12:22:28.742Z,960.64
2019-06-15T12:23:28.739Z,960.61
2019-06-15T12:24:28.712Z,960.63
2019-06-15T12:25:28.703Z,960.61
2019-06-15T12:26:28.680Z,960.64
2019-06-15T12:27:28.665Z,960.64
2019-06-15T12:28:28.650Z,960.58